Time;durP1;ratioP1;P1;durP2;ratioP2;P2;SDS_P1;SDS_P2;PMS_P1;PMS_P2;Temp;Humidity;BMP_temperature;BMP_pressure;BME280_temperature;BME280_humidity;BME280_pressure;Samples;Min_cycle;Max_cycle;Signal;HPM_P1;HPM_P2
2022/06/03 00:03:17;;;;;;;3.00;2.80;;;12.70;53.40;;;11.81;59.66;98174.09;4988861;28;20476;-69
2022/06/03 00:06:14;;;;;;;4.40;3.00;;;12.70;54.00;;;11.73;59.87;98171.66;4973562;28;20469;-69
2022/06/03 00:09:13;;;;;;;2.87;2.67;;;12.70;53.70;;;11.45;60.41;98160.19;4975605;28;20511;-71
2022/06/03 00:12:16;;;;;;;2.47;2.27;;;12.50;54.00;;;11.49;61.33;98166.00;4973861;28;20554;-70
2022/06/03 00:15:12;;;;;;;2.77;2.57;;;12.50;54.40;;;11.60;59.83;98168.00;4971762;28;20491;-70
2022/06/03 00:18:18;;;;;;;4.63;2.80;;;12.50;54.10;;;11.62;60.22;98148.81;4987342;28;20516;-70
2022/06/03 00:21:02;;;;;;;2.60;2.40;;;12.60;54.30;;;11.44;60.83;98160.38;4970358;28;20504;-72
2022/06/03 00:23:58;;;;;;;2.70;2.50;;;12.50;54.50;;;11.30;60.67;98156.94;4973869;28;20500;-72
2022/06/03 00:26:47;;;;;;;2.87;2.30;;;12.40;54.00;;;11.49;59.26;98152.47;5007116;28;20463;-69
2022/06/03 00:29:45;;;;;;;3.10;2.80;;;12.50;53.90;;;11.25;60.21;98149.47;4991722;28;20499;-71
2022/06/03 00:33:00;;;;;;;2.83;2.60;;;12.40;54.10;;;11.52;58.64;98152.03;4976041;28;20486;-71
2022/06/03 00:36:01;;;;;;;4.43;3.60;;;12.40;53.50;;;11.48;60.31;98154.31;4980753;28;20470;-69
2022/06/03 00:38:48;;;;;;;3.23;2.57;;;12.40;54.00;;;11.53;59.45;98140.16;4972327;28;20470;-68
2022/06/03 00:41:31;;;;;;;2.30;2.20;;;12.50;54.00;;;11.44;59.42;98147.69;4971972;28;20462;-69
2022/06/03 00:44:36;;;;;;;2.53;2.33;;;12.40;53.90;;;11.49;59.08;98141.63;4971101;28;20553;-70
2022/06/03 00:47:29;;;;;;;2.50;2.30;;;12.50;53.50;;;11.89;56.72;98148.63;4974112;28;20532;-71
2022/06/03 00:50:26;;;;;;;3.17;2.87;;;12.70;52.10;;;11.90;57.17;98151.13;4976978;28;20484;-70
2022/06/03 00:53:34;;;;;;;2.03;1.93;;;12.90;52.00;;;12.02;55.06;98147.72;4972444;28;20486;-74
2022/06/03 00:56:33;;;;;;;2.80;2.50;;;13.00;51.30;;;11.88;54.89;98109.88;5003286;28;20461;-72
2022/06/03 00:59:27;;;;;;;2.80;2.33;;;13.10;50.90;;;12.17;54.64;98142.78;4997021;28;20452;-70
2022/06/03 01:02:13;;;;;;;2.40;2.20;;;13.10;50.70;;;12.30;53.76;98143.72;4971980;28;20528;-70
2022/06/03 01:05:00;;;;;;;2.10;1.70;;;13.30;50.40;;;12.39;53.65;98136.13;4988744;28;20455;-71
2022/06/03 01:07:43;;;;;;;2.50;2.30;;;13.40;50.30;;;12.42;53.51;98138.38;4973991;28;20455;-70
2022/06/03 01:10:32;;;;;;;2.50;2.30;;;13.40;50.20;;;12.47;53.52;98127.72;4980749;28;20460;-71
2022/06/03 01:13:29;;;;;;;3.73;2.00;;;13.50;50.20;;;12.53;53.16;98125.97;4979807;28;20580;-71
2022/06/03 01:16:13;;;;;;;2.20;2.00;;;13.50;50.10;;;12.58;53.48;98126.13;4974070;28;20484;-70
2022/06/03 01:18:50;;;;;;;2.03;1.93;;;13.60;50.10;;;12.53;53.39;98120.56;4973876;28;20477;-71
2022/06/03 01:21:42;;;;;;;2.40;2.23;;;13.60;50.20;;;12.58;53.20;98123.41;4975020;28;20455;-71
2022/06/03 01:24:36;;;;;;;3.03;2.30;;;13.60;50.00;;;12.61;53.54;98112.13;4983043;28;20461;-72
2022/06/03 01:27:39;;;;;;;2.43;2.23;;;13.60;50.10;;;12.61;53.58;98112.13;4981997;28;20816;-72
2022/06/03 01:30:26;;;;;;;3.07;2.20;;;13.60;50.10;;;12.61;53.89;98112.13;4971891;28;21118;-73
2022/06/03 01:33:36;;;;;;;2.03;1.93;;;13.70;50.40;;;12.59;54.01;98119.66;4973158;28;20497;-70
2022/06/03 01:36:45;;;;;;;3.13;2.27;;;13.70;50.40;;;12.58;54.28;98112.56;4975886;28;20463;-71
2022/06/03 01:39:47;;;;;;;2.43;2.23;;;13.60;50.50;;;12.60;54.50;98116.72;4937365;28;20818;-70
2022/06/03 01:43:09;;;;;;;3.03;2.10;;;13.60;50.70;;;12.56;54.39;98120.09;5012083;28;20462;-70
2022/06/03 01:46:08;;;;;;;2.10;2.00;;;13.60;50.90;;;12.54;55.07;98114.09;4984349;28;20463;-70
2022/06/03 01:49:11;;;;;;;2.40;2.20;;;13.60;51.00;;;12.53;55.09;98115.13;4979797;28;20462;-73
2022/06/03 01:51:53;;;;;;;2.33;2.13;;;13.60;51.20;;;12.53;54.78;98124.09;4968546;28;20465;-71
2022/06/03 01:55:08;;;;;;;3.13;2.03;;;13.60;51.30;;;12.46;55.44;98121.44;4978516;28;20841;-72
2022/06/03 01:58:28;;;;;;;2.30;1.87;;;13.50;51.50;;;12.43;55.96;98111.06;4999185;28;20476;-70
2022/06/03 02:01:06;;;;;;;2.90;2.20;;;13.50;51.60;;;12.41;55.63;98107.75;4950001;28;20477;-70
2022/06/03 02:04:14;;;;;;;3.03;2.70;;;13.50;51.80;;;12.33;56.42;98116.16;4971218;28;20455;-74
2022/06/03 02:07:27;;;;;;;2.10;2.00;;;13.50;51.90;;;12.30;56.45;98111.19;4975145;28;20458;-74
2022/06/03 02:10:37;;;;;;;2.67;2.30;;;13.40;52.20;;;12.33;57.18;98121.59;4982659;28;20458;-73
2022/06/03 02:13:58;;;;;;;2.80;2.60;;;13.40;52.20;;;12.41;56.78;98125.88;4975564;28;20927;-72
2022/06/03 02:17:08;;;;;;;2.23;2.13;;;13.40;52.20;;;12.29;56.86;98123.09;4982008;28;20469;-72
2022/06/03 02:20:10;;;;;;;2.43;2.33;;;13.40;52.50;;;12.31;56.95;98126.41;4982982;28;20451;-71
2022/06/03 02:23:30;;;;;;;2.70;2.50;;;13.30;52.70;;;12.32;57.11;98125.34;4975526;28;21064;-69
2022/06/03 02:26:43;;;;;;;2.77;2.27;;;13.30;52.70;;;11.97;58.08;98080.66;4978247;28;20470;-72
2022/06/03 02:33:42;;;;;;;2.80;2.50;;;13.20;53.20;;;12.17;58.08;98115.69;4971417;28;20557;-71
2022/06/03 02:36:58;;;;;;;2.67;2.57;;;13.20;53.30;;;12.16;59.31;98119.47;4989902;28;20486;-71
2022/06/03 02:40:26;;;;;;;3.13;2.93;;;13.20;53.80;;;11.98;58.55;98120.25;4985095;28;21245;-69
2022/06/03 02:43:53;;;;;;;3.53;3.23;;;13.10;53.80;;;12.07;59.00;98115.41;4976468;28;20588;-70
2022/06/03 02:47:09;;;;;;;3.53;3.10;;;13.00;53.90;;;11.74;59.18;98071.28;4997559;28;20455;-71
2022/06/03 02:50:04;;;;;;;2.40;2.20;;;13.00;54.00;;;11.94;58.86;98112.78;4967348;28;20485;-73
2022/06/03 02:53:03;;;;;;;2.93;2.50;;;13.00;54.20;;;11.95;59.59;98122.56;4973156;28;20459;-72
2022/06/03 02:56:06;;;;;;;3.17;2.87;;;13.00;54.30;;;11.97;59.30;98117.75;4973338;28;20477;-71
2022/06/03 02:59:07;;;;;;;2.87;2.53;;;13.00;54.60;;;11.97;59.61;98117.75;4973818;28;20550;-70
2022/06/03 03:02:23;;;;;;;2.77;2.57;;;13.00;54.50;;;11.92;59.76;98104.06;5004963;28;20470;-72
2022/06/03 03:05:15;;;;;;;5.70;2.90;;;13.00;54.60;;;11.90;59.76;98110.53;5015752;28;21022;-73
2022/06/03 03:08:08;;;;;;;3.13;2.93;;;13.00;54.60;;;11.94;59.45;98101.94;4974975;28;20464;-72
2022/06/03 03:11:00;;;;;;;3.43;2.60;;;13.00;54.60;;;11.93;59.87;98103.00;4974816;28;20459;-72
2022/06/03 03:14:33;;;;;;;3.40;2.90;;;13.00;54.70;;;11.94;60.06;98107.38;4975229;28;20490;-70
2022/06/03 03:17:49;;;;;;;3.27;3.07;;;13.00;54.80;;;11.92;60.47;98109.47;4962019;28;20914;-69
2022/06/03 03:21:15;;;;;;;3.00;2.77;;;13.00;55.00;;;11.95;59.73;98109.03;4976168;28;21051;-71
2022/06/03 03:24:49;;;;;;;3.47;3.20;;;13.00;55.00;;;11.95;60.35;98114.44;4974634;28;20464;-71
2022/06/03 03:27:34;;;;;;;3.00;2.80;;;13.00;55.00;;;11.44;59.84;98030.53;4974980;28;20461;-69
2022/06/03 03:30:19;;;;;;;3.50;3.20;;;13.10;55.10;;;12.02;60.35;98116.06;4979590;28;21186;-70
2022/06/03 03:33:15;;;;;;;3.40;3.20;;;13.10;55.30;;;12.16;59.96;98130.28;4974586;28;20555;-69
2022/06/03 03:36:40;;;;;;;5.30;2.87;;;13.10;55.60;;;12.23;59.77;98118.59;4978798;28;20458;-69
2022/06/03 03:40:33;;;;;;;4.17;3.63;;;13.20;55.50;;;12.16;59.36;98110.53;4990432;28;20537;-69
2022/06/03 03:43:44;;;;;;;3.40;3.10;;;13.30;55.10;;;12.25;59.73;98127.31;4978159;28;20467;-70
2022/06/03 03:47:00;;;;;;;2.97;2.77;;;13.30;55.10;;;12.27;59.23;98127.91;4983615;28;20542;-70
2022/06/03 03:50:24;;;;;;;3.20;3.00;;;13.30;55.20;;;12.33;59.22;98132.41;4983271;28;20449;-69
2022/06/03 03:53:54;;;;;;;3.57;2.93;;;13.40;55.20;;;12.40;59.65;98133.19;4974736;28;20540;-72
2022/06/03 03:57:36;;;;;;;3.40;3.10;;;13.50;55.30;;;12.48;59.45;98126.66;4970583;28;20982;-70
2022/06/03 04:00:29;;;;;;;3.40;3.20;;;13.50;55.00;;;12.55;59.38;98129.28;4995817;28;20462;-71
2022/06/03 04:03:46;;;;;;;3.47;3.17;;;13.60;55.00;;;12.83;58.55;98131.44;4972799;28;20467;-70
2022/06/03 04:06:56;;;;;;;3.47;3.27;;;13.90;55.00;;;13.32;57.44;98131.44;4972194;28;20467;-73
2022/06/03 04:09:55;;;;;;;3.50;3.20;;;14.30;54.70;;;13.47;56.54;98143.78;4974661;28;20460;-70
2022/06/03 04:13:16;;;;;;;3.37;3.10;;;14.60;53.80;;;13.23;56.99;98134.72;4975683;28;20451;-70
2022/06/03 04:16:29;;;;;;;3.40;3.10;;;14.50;53.80;;;13.06;57.61;98134.50;4973557;28;20460;-71
2022/06/03 04:19:45;;;;;;;3.63;3.33;;;14.30;54.00;;;13.29;57.36;98134.63;4974572;28;20486;-73
2022/06/03 04:22:55;;;;;;;3.73;3.53;;;14.40;54.20;;;13.96;55.67;98124.66;4963042;28;20943;-70
2022/06/03 04:25:50;;;;;;;3.50;3.30;;;15.00;53.80;;;14.88;52.97;98118.78;4971523;28;20529;-70
2022/06/03 04:28:43;;;;;;;3.20;3.00;;;15.90;53.00;;;15.31;51.12;98124.78;4970205;28;20463;-70
2022/06/03 04:32:00;;;;;;;3.33;3.10;;;16.60;51.30;;;15.75;50.25;98118.75;4968928;28;20517;-69
2022/06/03 04:35:17;;;;;;;3.50;3.30;;;17.20;50.70;;;15.80;49.90;98127.00;4959058;28;21043;-69
2022/06/03 04:38:39;;;;;;;3.03;2.83;;;17.60;49.90;;;15.91;49.71;98119.84;4975881;28;20467;-70
2022/06/03 04:42:12;;;;;;;6.83;3.90;;;17.40;50.20;;;15.88;49.90;98128.47;4977917;28;20456;-83
2022/06/03 04:45:28;;;;;;;3.10;2.90;;;17.40;50.20;;;16.39;48.95;98119.50;4973188;28;20464;-77
2022/06/03 04:49:09;;;;;;;5.50;3.33;;;17.60;49.90;;;16.82;48.34;98122.50;4973984;28;20465;-85
2022/06/03 04:52:29;;;;;;;3.43;3.13;;;18.10;50.20;;;16.78;48.48;98130.34;5004134;28;20460;-76
2022/06/03 04:56:12;;;;;;;3.30;3.00;;;18.30;49.30;;;17.35;46.69;98122.00;4957016;28;20496;-72
2022/06/03 04:59:37;;;;;;;3.60;3.30;;;18.60;48.80;;;17.15;47.06;98130.84;5059566;28;20463;-74
2022/06/03 05:03:15;;;;;;;3.30;3.00;;;18.70;49.00;;;16.27;48.87;98125.03;4961953;28;20808;-74
2022/06/03 05:06:35;;;;;;;3.63;3.17;;;18.20;48.80;;;16.22;49.72;98120.31;4972363;28;20474;-76
2022/06/03 05:09:53;;;;;;;3.40;3.13;;;17.60;50.10;;;16.56;48.33;98122.16;4972656;28;20453;-77
2022/06/03 05:13:06;;;;;;;4.03;3.43;;;17.80;49.40;;;17.21;47.40;98116.16;4969417;28;20755;-77
2022/06/03 05:16:12;;;;;;;3.30;3.00;;;18.40;49.60;;;16.89;47.68;98109.47;5008433;28;20488;-76
2022/06/03 05:18:43;;;;;;;3.80;3.30;;;18.30;49.00;;;17.14;47.59;98105.44;4981493;28;20967;-76
2022/06/03 05:21:52;;;;;;;3.47;3.10;;;18.40;49.30;;;16.89;48.16;98109.47;4975283;28;20693;-77
2022/06/03 05:25:07;;;;;;;3.07;2.87;;;18.30;49.30;;;16.48;48.80;98108.97;4990574;28;20448;-76
2022/06/03 05:28:29;;;;;;;3.40;3.20;;;17.80;49.40;;;16.28;49.50;98083.91;5019927;28;20452;-77
2022/06/03 05:32:00;;;;;;;3.23;3.03;;;17.60;50.00;;;16.25;50.43;98099.91;5007934;28;20971;-76
2022/06/03 05:35:24;;;;;;;3.43;3.13;;;17.50;50.40;;;16.21;50.06;98094.13;4985231;28;20476;-76
2022/06/03 05:38:45;;;;;;;4.20;3.90;;;17.40;50.30;;;16.69;49.24;98091.78;4971015;28;20473;-72
2022/06/03 05:44:52;;;;;;;3.57;3.30;;;17.90;50.10;;;16.50;50.02;98090.44;4995167;28;20475;-77
2022/06/03 05:47:24;;;;;;;3.37;3.07;;;17.70;50.30;;;16.62;49.15;98090.31;4972932;28;22280;-74
2022/06/03 05:49:59;;;;;;;5.03;3.40;;;17.90;50.10;;;16.77;49.36;98106.06;4979781;28;20985;-81
2022/06/03 05:52:59;;;;;;;3.27;3.07;;;18.00;50.40;;;16.81;49.29;98102.56;4971069;28;20536;-80
2022/06/03 05:55:42;;;;;;;3.80;3.50;;;18.00;50.10;;;16.95;49.12;98092.09;4983137;28;20524;-77
2022/06/03 05:58:27;;;;;;;4.33;3.70;;;18.10;50.30;;;17.51;47.34;98088.31;4981753;28;20447;-75
2022/06/03 06:01:41;;;;;;;4.37;3.60;;;18.60;50.00;;;17.49;48.12;98087.75;4995190;28;20970;-74
2022/06/03 06:04:20;;;;;;;3.93;3.47;;;18.70;49.70;;;18.40;45.53;98098.03;4967769;28;20463;-77
2022/06/03 06:07:06;;;;;;;7.83;3.40;;;19.40;49.30;;;19.03;44.39;98099.13;4988539;28;20464;-77
2022/06/03 06:09:48;;;;;;;3.23;3.00;;;20.10;48.90;;;19.78;43.06;98098.69;4984299;28;20455;-76
2022/06/03 06:12:47;;;;;;;2.90;2.53;;;20.80;48.30;;;19.45;43.43;98095.41;4993958;28;20461;-77
2022/06/03 06:15:42;;;;;;;4.00;3.60;;;20.90;47.90;;;18.96;44.74;98100.19;4983707;28;20484;-74
2022/06/03 06:18:23;;;;;;;3.63;2.73;;;20.70;48.00;;;19.30;44.03;98092.63;4982828;28;20544;-73
2022/06/03 06:21:05;;;;;;;3.20;3.00;;;20.60;48.20;;;20.18;43.35;98087.19;4977958;28;20448;-73
2022/06/03 06:23:44;;;;;;;3.53;3.23;;;21.60;48.30;;;20.20;42.29;98087.75;4980978;28;20489;-76
2022/06/03 06:27:08;;;;;;;3.10;2.80;;;21.80;47.50;;;19.29;44.58;98091.00;4979473;28;20482;-78
2022/06/03 06:30:09;;;;;;;3.27;3.07;;;21.30;47.90;;;18.29;46.84;98090.84;4983930;28;20461;-77
2022/06/03 06:33:11;;;;;;;3.20;3.00;;;20.00;48.70;;;18.09;47.66;98084.97;4979231;28;20472;-75
2022/06/03 06:36:37;;;;;;;3.50;3.20;;;19.40;49.50;;;17.95;48.42;98089.22;4986322;28;20487;-76
2022/06/03 06:39:15;;;;;;;3.60;3.30;;;19.20;49.90;;;18.03;47.88;98077.84;4993369;28;20509;-73
2022/06/03 06:41:52;;;;;;;5.33;4.00;;;19.10;50.10;;;17.99;48.33;98072.03;4978557;28;20527;-73
2022/06/03 06:44:34;;;;;;;4.60;3.50;;;19.00;50.30;;;17.56;48.64;98039.22;4981928;28;20456;-78
2022/06/03 06:47:15;;;;;;;3.87;3.27;;;18.90;50.40;;;18.07;48.54;98087.16;4997836;28;20467;-74
2022/06/03 06:49:54;;;;;;;3.70;3.40;;;19.10;50.80;;;18.24;49.30;98077.97;4992415;28;21176;-77
2022/06/03 06:52:41;;;;;;;3.57;3.37;;;19.10;51.20;;;18.23;48.34;98076.31;4977150;28;20492;-75
2022/06/03 06:55:19;;;;;;;3.90;3.53;;;19.30;50.70;;;18.25;48.51;98083.19;4977301;28;21196;-74
2022/06/03 06:57:50;;;;;;;4.27;4.00;;;19.30;51.00;;;18.23;48.88;98076.31;4970561;28;20457;-76
2022/06/03 07:00:24;;;;;;;7.30;4.57;;;19.20;51.00;;;18.65;48.51;98082.81;4973271;28;20447;-75
2022/06/03 07:02:57;;;;;;;3.77;3.57;;;19.40;51.60;;;18.32;48.66;98080.22;4974186;28;20482;-77
2022/06/03 07:05:34;;;;;;;3.90;3.60;;;19.40;51.00;;;18.46;48.96;98079.72;4981117;28;20460;-77
2022/06/03 07:08:10;;;;;;;4.00;3.20;;;19.40;51.30;;;18.63;48.46;98074.06;4980055;28;20460;-76
2022/06/03 07:10:47;;;;;;;6.40;3.77;;;19.60;51.50;;;18.69;48.42;98073.00;4978516;28;20459;-77
2022/06/03 07:13:20;;;;;;;4.50;4.20;;;19.50;51.20;;;19.11;48.09;98074.81;4971560;28;21077;-75
2022/06/03 07:16:09;;;;;;;6.00;5.10;;;19.90;51.60;;;19.20;47.36;98071.53;4978359;28;20483;-72
2022/06/03 07:22:00;;;;;;;7.17;4.60;;;20.30;51.40;;;19.71;47.20;98068.03;4985549;28;20449;-76
2022/06/03 07:24:39;;;;;;;4.23;3.93;;;20.40;51.70;;;19.72;46.93;98063.38;4976036;28;20472;-77
2022/06/03 07:27:17;;;;;;;4.57;4.07;;;20.70;51.10;;;19.73;47.08;98051.31;4975273;28;20457;-79
2022/06/03 07:29:50;;;;;;;4.40;4.10;;;20.60;51.20;;;20.02;46.95;98048.84;4973724;28;20463;-74
2022/06/03 07:32:22;;;;;;;5.63;4.20;;;20.80;51.70;;;20.19;46.67;98050.44;5001835;28;20569;-77
2022/06/03 07:34:57;;;;;;;4.33;4.03;;;21.00;51.30;;;20.28;46.38;98042.47;4972639;28;20480;-76
2022/06/03 07:37:30;;;;;;;5.00;3.73;;;21.10;51.30;;;20.45;46.27;98039.41;4968098;28;20474;-74
2022/06/03 07:40:02;;;;;;;4.07;3.67;;;21.30;51.20;;;20.50;46.45;98042.13;4969334;28;20463;-75
2022/06/03 07:42:39;;;;;;;4.37;3.97;;;21.40;51.50;;;20.69;45.90;98038.75;4977439;28;20890;-78
2022/06/03 07:45:30;;;;;;;3.83;3.43;;;21.60;51.20;;;20.84;45.81;98033.22;4971696;28;20461;-77
2022/06/03 07:48:00;;;;;;;4.40;3.93;;;21.70;51.50;;;20.86;45.93;98016.47;4973974;28;21019;-74
2022/06/03 07:50:34;;;;;;;3.67;3.27;;;21.80;51.50;;;20.88;45.87;98014.25;4974278;28;20466;-77
2022/06/03 07:53:07;;;;;;;4.20;3.80;;;21.80;51.50;;;21.25;45.48;98015.69;4974613;28;20460;-78
2022/06/03 07:55:35;;;;;;;3.53;3.33;;;22.10;51.70;;;21.15;45.75;98007.50;4970838;28;20484;-76
2022/06/03 07:58:07;;;;;;;3.50;3.30;;;22.00;51.50;;;21.45;45.50;98014.69;4970050;28;20524;-77
2022/06/03 08:00:37;;;;;;;3.70;3.40;;;22.30;51.70;;;21.66;45.21;98017.31;4972016;28;20484;-78
2022/06/03 08:03:08;;;;;;;4.10;3.50;;;22.40;51.70;;;22.18;44.06;98016.78;4974209;28;20459;-77
2022/06/03 08:05:37;;;;;;;6.83;3.70;;;22.80;51.50;;;22.17;43.83;98015.16;4975064;28;20458;-75
2022/06/03 08:11:00;;;;;;;3.40;3.10;;;23.10;51.10;;;22.69;43.26;98009.88;4984035;28;21044;-77
2022/06/03 08:13:31;;;;;;;5.70;3.50;;;23.20;51.20;;;22.55;43.49;98003.44;4988075;28;20450;-78
2022/06/03 08:16:02;;;;;;;3.87;3.17;;;23.40;51.00;;;22.70;43.70;98007.97;4983804;28;20480;-76
2022/06/03 08:18:40;;;;;;;4.23;3.83;;;23.40;51.20;;;22.60;43.50;98001.47;4985247;28;20460;-81
2022/06/03 08:21:14;;;;;;;6.90;3.70;;;23.30;51.00;;;23.10;43.05;98005.72;5005497;28;20468;-73
2022/06/03 08:23:42;;;;;;;3.73;3.40;;;23.70;51.40;;;23.11;42.58;97993.59;4971789;28;20463;-75
2022/06/03 08:26:14;;;;;;;3.67;3.37;;;23.90;50.80;;;23.20;42.68;97994.56;4978470;28;20914;-75
2022/06/03 08:28:48;;;;;;;4.00;3.60;;;23.80;51.10;;;23.02;42.82;97993.44;4974409;28;20553;-78
2022/06/03 08:31:19;;;;;;;4.10;3.50;;;23.90;50.70;;;22.97;42.69;97988.00;4979591;28;20466;-78
2022/06/03 08:33:51;;;;;;;4.90;3.63;;;23.80;50.90;;;22.96;42.51;97974.53;4976301;28;20464;-77
2022/06/03 08:36:24;;;;;;;5.50;3.57;;;23.80;50.60;;;23.00;43.36;97970.09;4970337;28;20479;-81
2022/06/03 08:38:56;;;;;;;5.13;3.20;;;23.80;51.10;;;23.04;43.16;97969.16;4978501;28;20672;-78
2022/06/03 08:41:53;;;;;;;3.47;3.13;;;23.70;51.10;;;23.26;42.57;97967.75;4973420;28;20466;-74
2022/06/03 08:44:36;;;;;;;4.20;3.50;;;23.90;51.00;;;23.25;43.04;97965.28;4971096;28;20953;-79
2022/06/03 08:47:12;;;;;;;4.07;3.70;;;23.90;51.20;;;22.71;43.69;97962.78;4974084;28;20210;-77
2022/06/03 08:50:00;;;;;;;4.93;3.50;;;23.70;50.90;;;23.02;43.47;97965.09;4975609;28;20469;-80
2022/06/03 08:52:44;;;;;;;3.80;3.50;;;23.60;51.20;;;22.78;43.98;97968.72;4974593;28;20502;-78
2022/06/03 08:55:39;;;;;;;3.77;3.50;;;23.60;51.30;;;22.92;43.31;97935.75;4973972;28;20570;-81
2022/06/03 08:58:22;;;;;;;3.40;3.10;;;23.70;51.30;;;23.27;43.24;97955.63;4974368;28;20470;-81
2022/06/03 09:01:00;;;;;;;3.60;3.30;;;23.90;51.50;;;23.20;43.12;97944.94;4978676;28;20451;-74
2022/06/03 09:03:31;;;;;;;4.07;3.70;;;24.00;51.20;;;23.40;43.15;97961.50;4962262;28;20882;-77
2022/06/03 09:06:06;;;;;;;3.83;3.27;;;24.00;51.40;;;23.44;42.82;97957.84;4982245;28;20475;-77
2022/06/03 09:08:42;;;;;;;11.77;4.10;;;24.10;51.30;;;23.28;43.35;97921.44;4975438;28;20458;-81
2022/06/03 09:11:18;;;;;;;6.30;4.37;;;24.10;51.60;;;23.53;42.96;97948.84;5004439;28;20474;-77
2022/06/03 09:13:54;;;;;;;3.40;3.20;;;24.10;51.30;;;23.62;42.74;97947.03;4977496;28;21262;-79
2022/06/03 09:16:25;;;;;;;3.80;3.50;;;24.30;51.20;;;23.43;42.84;97956.19;4971957;28;20541;-76
2022/06/03 09:18:57;;;;;;;3.90;3.47;;;24.30;51.10;;;23.67;42.98;97959.94;4973805;28;21072;-76
2022/06/03 09:21:28;;;;;;;4.00;3.63;;;24.30;51.50;;;23.76;42.60;97956.16;4989871;28;20563;-75
2022/06/03 09:24:11;;;;;;;6.07;3.40;;;24.40;51.30;;;23.48;42.97;97924.94;4990713;28;20447;-81
2022/06/03 09:26:43;;;;;;;6.03;3.50;;;24.40;51.30;;;23.96;42.46;97959.66;4974099;28;20523;-75
2022/06/03 09:29:13;;;;;;;3.30;3.00;;;24.50;51.50;;;24.27;42.54;97956.31;4973136;28;20992;-80
2022/06/03 09:31:47;;;;;;;5.07;3.60;;;24.80;51.70;;;24.16;41.98;97921.75;4972519;28;20479;-74
2022/06/03 09:34:18;;;;;;;3.60;3.30;;;24.90;51.30;;;24.13;41.84;97955.50;4974249;28;20466;-74
2022/06/03 09:36:46;;;;;;;3.70;3.40;;;24.80;51.00;;;24.15;42.10;97953.25;4971462;28;20465;-74
2022/06/03 09:39:18;;;;;;;3.33;3.03;;;24.80;51.20;;;24.19;42.06;97948.75;4964614;28;20477;-78
2022/06/03 09:41:55;;;;;;;3.20;3.00;;;24.90;51.10;;;24.33;41.73;97938.50;5003886;28;20494;-78
2022/06/03 09:44:25;;;;;;;3.30;3.10;;;25.00;51.10;;;24.53;42.03;97946.66;4979166;28;20455;-79
2022/06/03 09:46:59;;;;;;;5.50;3.40;;;25.00;51.40;;;24.50;42.14;97945.34;4975963;28;20478;-76
2022/06/03 09:49:28;;;;;;;4.57;3.30;;;25.10;51.30;;;24.43;41.46;97936.66;4976628;28;20471;-76
2022/06/03 09:51:59;;;;;;;5.53;4.00;;;25.10;51.00;;;24.67;41.58;97933.63;5007766;28;20463;-78
2022/06/03 09:54:31;;;;;;;4.67;3.70;;;25.20;51.20;;;24.72;41.61;97921.66;4974403;28;20464;-79
2022/06/03 09:57:07;;;;;;;5.77;3.97;;;25.30;51.20;;;24.70;41.07;97923.94;4993963;28;20456;-76
2022/06/03 09:59:39;;;;;;;3.90;3.40;;;25.40;50.70;;;24.83;41.36;97925.88;4981990;28;20476;-80
2022/06/03 10:02:08;;;;;;;6.80;3.57;;;25.40;50.80;;;24.57;41.37;97923.66;4986980;28;20460;-78
2022/06/03 10:04:36;;;;;;;3.63;3.10;;;25.30;50.60;;;24.77;41.11;97910.53;4986581;28;20478;-77
2022/06/03 10:07:04;;;;;;;3.70;3.40;;;25.40;50.70;;;24.79;40.89;97905.50;4974903;28;20514;-78
2022/06/03 10:18:03;;;;;;;4.10;3.77;;;25.80;50.60;;;24.98;40.85;97907.28;4989619;28;20449;-78
2022/06/03 10:20:31;;;;;;;3.40;3.10;;;25.60;50.40;;;25.26;40.46;97907.16;4979940;28;20470;-77
2022/06/03 10:22:59;;;;;;;4.10;3.53;;;25.80;50.50;;;25.22;40.34;97900.63;4981517;28;20970;-78
2022/06/03 10:25:29;;;;;;;4.70;3.10;;;25.80;50.40;;;25.47;40.45;97890.84;4986674;28;20468;-75
2022/06/03 10:27:57;;;;;;;3.87;3.57;;;25.90;50.80;;;25.36;40.93;97895.81;4973481;28;20460;-76
2022/06/03 10:30:32;;;;;;;4.90;3.10;;;25.90;50.60;;;25.65;39.41;97885.44;5008776;28;20565;-75
2022/06/03 10:32:59;;;;;;;4.57;3.20;;;26.20;49.80;;;25.54;39.78;97882.13;4976264;28;20481;-81
2022/06/03 10:35:29;;;;;;;3.57;3.03;;;26.20;50.10;;;25.57;40.51;97881.50;4983412;28;20484;-79
2022/06/03 10:38:00;;;;;;;4.37;3.97;;;26.20;50.40;;;25.59;40.16;97874.50;4970595;28;20476;-82
2022/06/03 10:40:29;;;;;;;3.43;3.23;;;26.20;50.30;;;25.63;40.27;97882.16;4986651;28;20486;-76
2022/06/03 10:43:01;;;;;;;7.50;3.33;;;26.20;50.30;;;25.89;39.84;97873.97;4969177;28;20551;-79
2022/06/03 10:45:30;;;;;;;5.80;3.40;;;26.40;50.50;;;26.10;39.40;97856.78;4980795;28;20467;-75
2022/06/03 10:47:57;;;;;;;4.60;2.93;;;26.60;50.10;;;26.15;39.07;97859.38;4985271;28;20473;-80
2022/06/03 10:50:33;;;;;;;5.70;3.07;;;26.70;49.80;;;25.93;38.93;97852.81;4979503;28;20893;-82
2022/06/03 11:01:53;;;;;;;3.50;3.20;;;26.80;49.70;;;26.02;38.92;97831.53;4973781;28;20547;-80
2022/06/03 11:04:30;;;;;;;3.67;3.37;;;26.70;49.40;;;26.29;38.63;97826.06;5000026;28;20461;-79
2022/06/03 11:07:01;;;;;;;6.40;2.83;;;26.80;49.60;;;26.11;38.43;97833.50;4980036;28;20452;-77
2022/06/03 11:09:29;;;;;;;2.90;2.70;;;26.70;49.20;;;26.40;38.53;97826.56;4976656;28;20459;-77
2022/06/03 11:12:03;;;;;;;3.00;2.80;;;26.90;49.50;;;26.51;38.05;97824.25;4973482;28;20464;-80
2022/06/03 11:14:39;;;;;;;3.73;3.40;;;27.00;49.50;;;26.50;37.81;97823.47;4979729;28;21001;-78
2022/06/03 11:17:13;;;;;;;3.73;3.30;;;27.00;49.00;;;26.54;37.58;97813.34;5001737;28;20630;-78
2022/06/03 11:19:45;;;;;;;3.97;3.40;;;27.00;49.00;;;26.32;37.44;97808.78;4974013;28;20468;-80
2022/06/03 11:22:26;;;;;;;3.80;3.50;;;27.00;48.60;;;26.63;37.17;97807.00;4970342;28;20468;-76
2022/06/03 11:25:02;;;;;;;3.37;3.17;;;27.10;48.90;;;26.70;37.61;97801.78;4975449;28;20468;-80
2022/06/03 11:27:37;;;;;;;3.10;2.80;;;27.30;49.10;;;26.74;38.06;97802.75;4971730;28;20482;-76
2022/06/03 11:30:12;;;;;;;4.13;2.83;;;27.30;49.10;;;26.94;37.34;97811.56;4987490;28;20460;-79
2022/06/03 11:32:43;;;;;;;2.90;2.70;;;27.40;49.10;;;27.15;37.14;97809.72;4958258;28;20468;-80
2022/06/03 11:35:21;;;;;;;3.30;3.00;;;27.60;49.30;;;27.05;36.84;97809.25;4982846;28;20525;-78
2022/06/03 11:37:54;;;;;;;3.30;2.77;;;27.70;48.60;;;27.26;36.52;97810.16;4978576;28;20487;-79
2022/06/03 11:40:27;;;;;;;3.30;2.90;;;27.70;48.30;;;27.03;36.34;97804.03;4979063;28;21186;-77
2022/06/03 11:43:00;;;;;;;6.57;3.10;;;27.70;48.10;;;27.19;36.57;97806.25;4974043;28;20475;-77
2022/06/03 11:45:38;;;;;;;3.20;3.00;;;27.60;48.40;;;26.99;36.78;97797.53;4977901;28;20201;-78
2022/06/03 11:48:16;;;;;;;2.90;2.53;;;27.70;48.30;;;27.29;36.11;97808.69;4970246;28;20464;-80
2022/06/03 11:50:45;;;;;;;3.33;3.03;;;27.80;48.40;;;27.41;35.51;97811.59;4970042;28;20456;-76
2022/06/03 11:53:13;;;;;;;3.37;3.10;;;27.90;47.80;;;27.48;35.10;97810.25;5000437;28;20509;-77
2022/06/03 11:55:41;;;;;;;4.27;3.13;;;28.00;47.70;;;27.69;35.57;97811.16;4977910;28;20518;-77
2022/06/03 11:58:18;;;;;;;2.87;2.67;;;28.10;47.90;;;27.69;35.03;97802.03;4975102;28;20491;-76
2022/06/03 12:00:51;;;;;;;3.20;2.60;;;28.20;47.40;;;27.63;34.52;97809.72;4989560;28;20492;-78
2022/06/03 12:03:37;;;;;;;3.07;2.80;;;28.30;47.00;;;27.20;35.78;97807.88;4973134;28;20464;-78
2022/06/03 12:06:08;;;;;;;2.77;2.57;;;27.90;47.30;;;27.21;35.94;97803.97;4967530;28;20467;-79
2022/06/03 12:08:48;;;;;;;3.10;2.80;;;27.80;47.70;;;27.21;35.90;97796.47;4974819;28;20468;-80
2022/06/03 12:14:33;;;;;;;4.27;3.23;;;28.10;47.20;;;28.05;34.87;97802.63;4985516;28;21009;-79
2022/06/03 12:17:22;;;;;;;3.03;2.83;;;28.40;47.40;;;28.41;33.82;97809.56;4976786;28;20476;-80
2022/06/03 12:19:52;;;;;;;3.33;3.03;;;28.80;46.80;;;28.76;33.15;97800.94;4972003;28;20492;-74
2022/06/03 12:22:41;;;;;;;3.07;2.87;;;29.20;46.70;;;29.57;32.09;97810.06;4969037;28;20472;-78
2022/06/03 12:25:45;;;;;;;3.00;2.80;;;29.70;46.50;;;29.22;33.27;97816.88;4977205;28;20492;-77
2022/06/03 12:28:21;;;;;;;3.43;3.13;;;29.80;46.50;;;29.68;32.08;97798.16;4989542;28;20471;-77
2022/06/03 12:30:54;;;;;;;3.43;2.90;;;30.20;46.20;;;30.11;32.32;97795.13;4984491;28;20468;-77